• Join FlightAware (Why Join?)
  • Login
  • US Flag 
11:18AM EST


 

Airport Tracker/Info


-or-


 

Live Flight TrackerFlight Track Log ✈ AKX1696 ✈ 27-May-2013 ✈ RJSF / FKS - RJOO / ITM

Flight Track Log - Related Links

Times and Time Zones

All times are in EDT time to prevent confusion due to time zone crossing. See the AKX1696 flight status page for this flight to view local times or setup timezone preferences in your user account.

Time Position Orientation Groundspeed Altitude Reporting Facility
EDT Latitude Longitude Course Direction KTS MPH feet Rate Location/Type
03:49AM 37.1043 140.1604 240° Southwest  Level Estimated
03:50AM 37.0631 140.0705 240° Southwest  Level Estimated
03:51AM 37.0219 139.9807 240° Southwest  Level Estimated
03:52AM 36.9806 139.8911 240° Southwest  Level Estimated
03:53AM 36.9392 139.8015 240° Southwest  Level Estimated
03:54AM 36.8978 139.7120 240° Southwest  Level Estimated
03:55AM 36.8563 139.6226 240° Southwest  Level Estimated
03:56AM 36.8147 139.5333 240° Southwest  Level Estimated
03:57AM 36.7731 139.4440 240° Southwest  Level Estimated
03:58AM 36.7313 139.3549 240° Southwest  Level Estimated
03:59AM 36.6896 139.2659 240° Southwest  Level Estimated
04:00AM 36.6477 139.1770 240° Southwest  Level Estimated
04:01AM 36.6058 139.0882 240° Southwest  Level Estimated
04:02AM 36.5639 138.9995 240° Southwest  Level Estimated
04:03AM 36.5218 138.9108 239° Southwest  Level Estimated
04:04AM 36.4797 138.8223 239° Southwest  Level Estimated
04:05AM 36.4375 138.7339 239° Southwest  Level Estimated
04:06AM 36.3953 138.6455 239° Southwest  Level Estimated
04:07AM 36.3530 138.5573 239° Southwest  Level Estimated
04:08AM 36.3106 138.4691 239° Southwest  Level Estimated
04:09AM 36.2682 138.3811 239° Southwest  Level Estimated
04:10AM 36.2257 138.2932 239° Southwest  Level Estimated
04:11AM 36.1832 138.2053 239° Southwest  Level Estimated
04:12AM 36.1405 138.1175 239° Southwest  Level Estimated
04:13AM 36.0979 138.0299 239° Southwest  Level Estimated
04:14AM 36.0551 137.9423 239° Southwest  Level Estimated
04:15AM 36.0123 137.8548 239° Southwest  Level Estimated
04:16AM 35.9694 137.7674 239° Southwest  Level Estimated
04:17AM 35.9265 137.6801 239° Southwest  Level Estimated
04:18AM 35.8835 137.5930 239° Southwest  Level Estimated
04:19AM 35.8404 137.5058 239° Southwest  Level Estimated
04:20AM 35.7973 137.4189 239° Southwest  Level Estimated
04:21AM 35.7541 137.3319 239° Southwest  Level Estimated
04:22AM 35.7108 137.2451 238° Southwest  Level Estimated
04:23AM 35.6675 137.1584 238° Southwest  Level Estimated
04:24AM 35.6241 137.0718 238° Southwest  Level Estimated
04:25AM 35.5807 136.9852 238° Southwest  Level Estimated
04:26AM 35.5372 136.8988 238° Southwest  Level Estimated
04:27AM 35.4936 136.8125 238° Southwest  Level Estimated
04:28AM 35.4500 136.7262 238° Southwest  Level Estimated
04:29AM 35.4063 136.6401 238° Southwest  Level Estimated
04:30AM 35.3626 136.5540 238° Southwest  Level Estimated
04:31AM 35.3187 136.4680 238° Southwest  Level Estimated
04:32AM 35.2749 136.3822 238° Southwest  Level Estimated
04:33AM 35.2309 136.2964 238° Southwest  Level Estimated
04:34AM 35.1870 136.2107 238° Southwest  Level Estimated
04:35AM 35.1429 136.1251 238° Southwest  Level Estimated
04:36AM 35.0988 136.0396 238° Southwest  Level Estimated
04:37AM 35.0546 135.9541 238° Southwest  Level Estimated
04:38AM 35.0104 135.8688 238° Southwest  Level Estimated
04:39AM 34.9661 135.7836 238° Southwest  Level Estimated
04:40AM 34.9218 135.6985 238° Southwest  Level Estimated
04:41AM 34.8773 135.6134 238° Southwest  Level Estimated
04:42AM 34.8329 135.5285 237° Southwest  Level Estimated
04:43AM 34.7884 135.4436 237° Southwest  Level Estimated
04:44AM 34.7855 135.4382 237° Southwest  Level Estimated
04:45AM 34.7855 135.4382 141° Southeast  Level Estimated
04:46AM 34.7855 135.4382 141° Southeast  Level Estimated
04:47AM 34.7855 135.4382 141° Southeast  Level Estimated
04:48AM 34.7855 135.4382 141° Southeast  Level Estimated
04:49AM 34.7855 135.4382 141° Southeast  Level Estimated
04:50AM 34.7855 135.4382 141° Southeast  Level Estimated
04:51AM 34.7855 135.4382 141° Southeast  Level Estimated
04:52AM 34.7855 135.4382 141° Southeast  Level Estimated
04:53AM 34.7855 135.4382 141° Southeast  Level Estimated
04:54AM 34.7855 135.4382 141° Southeast  Level Estimated